Time;durP1;ratioP1;P1;durP2;ratioP2;P2;SDS_P1;SDS_P2;PMS_P1;PMS_P2;Temp;Humidity;BMP_temperature;BMP_pressure;BME280_temperature;BME280_humidity;BME280_pressure;Samples;Min_cycle;Max_cycle;Signal;HPM_P1;HPM_P2
2023/10/22 00:00:07;;;;;;;24.33;11.43;;;;;;;;;;5015925;28;20064;-74
2023/10/22 00:02:40;;;;;;;37.70;13.07;;;;;;;;;;4999621;28;20056;-74
2023/10/22 00:05:06;;;;;;;46.57;14.33;;;;;;;;;;5014724;28;20045;-72
2023/10/22 00:07:32;;;;;;;21.50;11.07;;;;;;;;;;5014351;28;20063;-72
2023/10/22 00:09:58;;;;;;;20.73;11.80;;;;;;;;;;4998091;28;20439;-72
2023/10/22 00:12:24;;;;;;;26.33;10.17;;;;;;;;;;5014447;28;20038;-72
2023/10/22 00:14:50;;;;;;;22.17;10.97;;;;;;;;;;5014492;28;20033;-71
2023/10/22 00:17:15;;;;;;;17.00;9.90;;;;;;;;;;5014862;28;20403;-71
2023/10/22 00:19:47;;;;;;;20.17;9.73;;;;;;;;;;4999672;28;20037;-71
2023/10/22 00:22:14;;;;;;;17.07;10.30;;;;;;;;;;4998848;28;20042;-71
2023/10/22 00:24:41;;;;;;;17.87;11.20;;;;;;;;;;4980135;28;20050;-70
2023/10/22 00:27:08;;;;;;;22.73;10.20;;;;;;;;;;4996112;28;20061;-71
2023/10/22 00:29:34;;;;;;;28.23;10.83;;;;;;;;;;5012124;28;20044;-70
2023/10/22 00:32:00;;;;;;;20.33;11.00;;;;;;;;;;4996254;28;20469;-72
2023/10/22 00:34:26;;;;;;;20.10;9.83;;;;;;;;;;4979526;28;20054;-73
2023/10/22 00:36:53;;;;;;;17.07;9.73;;;;;;;;;;4996149;28;20594;-72
2023/10/22 00:39:20;;;;;;;15.10;9.13;;;;;;;;;;4979883;28;20038;-73
2023/10/22 00:41:46;;;;;;;22.00;10.40;;;;;;;;;;4991218;28;20061;-71
2023/10/22 00:44:13;;;;;;;19.17;11.53;;;;;;;;;;4999480;28;20067;-73
2023/10/22 00:46:38;;;;;;;19.83;11.17;;;;;;;;;;5015873;28;20467;-72
2023/10/22 00:49:04;;;;;;;23.20;11.70;;;;;;;;;;4999660;28;20041;-72
2023/10/22 00:51:30;;;;;;;17.97;10.73;;;;;;;;;;4982775;28;20033;-71
2023/10/22 00:53:58;;;;;;;22.97;10.07;;;;;;;;;;5061332;28;20048;-73
2023/10/22 00:56:25;;;;;;;20.93;10.80;;;;;;;;;;5039639;28;20138;-72
2023/10/22 00:58:52;;;;;;;24.27;12.73;;;;;;;;;;5039534;28;20032;-72
2023/10/22 01:01:18;;;;;;;33.23;15.00;;;;;;;;;;5072545;28;20507;-72
2023/10/22 01:03:44;;;;;;;16.30;10.00;;;;;;;;;;5039594;28;20104;-72
2023/10/22 01:06:10;;;;;;;21.27;11.03;;;;;;;;;;5056222;28;20036;-72
2023/10/22 01:08:36;;;;;;;21.70;9.40;;;;;;;;;;5039887;28;20029;-72
2023/10/22 01:11:04;;;;;;;19.23;10.50;;;;;;;;;;5040641;28;20386;-72
2023/10/22 01:13:29;;;;;;;21.90;11.13;;;;;;;;;;5057194;28;20032;-72
2023/10/22 01:15:57;;;;;;;18.17;10.10;;;;;;;;;;5055927;28;20036;-72
2023/10/22 01:18:23;;;;;;;22.10;10.33;;;;;;;;;;5018772;28;20040;-71
2023/10/22 01:20:50;;;;;;;18.60;9.10;;;;;;;;;;5001783;28;20152;-71
2023/10/22 01:23:15;;;;;;;12.37;8.03;;;;;;;;;;5018352;28;20403;-71
2023/10/22 01:25:41;;;;;;;12.13;7.50;;;;;;;;;;5034769;28;20410;-71
2023/10/22 01:28:07;;;;;;;14.20;8.90;;;;;;;;;;5001838;28;20064;-71
2023/10/22 01:30:34;;;;;;;25.73;11.47;;;;;;;;;;5034748;28;20041;-72
2023/10/22 01:33:00;;;;;;;24.40;9.60;;;;;;;;;;5001835;28;20142;-72
2023/10/22 01:35:25;;;;;;;14.23;7.87;;;;;;;;;;5002012;28;20101;-71
2023/10/22 01:37:51;;;;;;;16.23;8.90;;;;;;;;;;5001658;28;20535;-71
2023/10/22 01:40:18;;;;;;;10.07;6.23;;;;;;;;;;5017721;28;20199;-71
2023/10/22 01:42:45;;;;;;;13.10;6.90;;;;;;;;;;5034779;28;20037;-71
2023/10/22 01:45:11;;;;;;;14.10;6.93;;;;;;;;;;5017884;28;20554;-71
2023/10/22 01:47:37;;;;;;;15.27;8.43;;;;;;;;;;5017508;28;20213;-71
2023/10/22 01:50:04;;;;;;;14.30;7.50;;;;;;;;;;5046376;28;20040;-71
2023/10/22 01:52:30;;;;;;;13.97;6.47;;;;;;;;;;5055139;28;20062;-71
2023/10/22 01:54:56;;;;;;;14.43;7.53;;;;;;;;;;5038398;28;20423;-71
2023/10/22 01:57:23;;;;;;;12.03;6.80;;;;;;;;;;5054711;28;20039;-71
2023/10/22 01:59:49;;;;;;;10.87;6.83;;;;;;;;;;5071432;28;20040;-71
2023/10/22 02:02:15;;;;;;;14.73;8.47;;;;;;;;;;5054435;28;20084;-72
2023/10/22 02:04:41;;;;;;;19.77;8.67;;;;;;;;;;5037410;28;20391;-73
2023/10/22 02:07:07;;;;;;;13.87;7.60;;;;;;;;;;5040840;28;20036;-74
2023/10/22 02:09:33;;;;;;;15.70;7.67;;;;;;;;;;5057942;28;20055;-71
2023/10/22 02:11:59;;;;;;;17.33;8.00;;;;;;;;;;5057074;28;20050;-71
2023/10/22 02:14:25;;;;;;;17.23;9.57;;;;;;;;;;5091742;28;20370;-72
2023/10/22 02:16:51;;;;;;;13.77;7.33;;;;;;;;;;5091287;28;20455;-72
2023/10/22 02:19:17;;;;;;;14.33;7.67;;;;;;;;;;5091508;28;20039;-72
2023/10/22 02:22:02;;;;;;;12.93;7.27;;;;;;;;;;5063787;28;20481;-71
2023/10/22 02:24:28;;;;;;;16.90;8.37;;;;;;;;;;5057900;28;20511;-71
2023/10/22 02:26:54;;;;;;;16.90;9.07;;;;;;;;;;5057973;28;20131;-72
2023/10/22 02:29:20;;;;;;;23.13;9.63;;;;;;;;;;5091230;28;20118;-72
2023/10/22 02:31:48;;;;;;;19.20;10.60;;;;;;;;;;5074075;28;20437;-71
2023/10/22 02:34:14;;;;;;;20.67;10.33;;;;;;;;;;5057491;28;20035;-72
2023/10/22 02:36:40;;;;;;;14.83;8.80;;;;;;;;;;5091131;28;20508;-72
2023/10/22 02:39:08;;;;;;;19.30;10.47;;;;;;;;;;5073954;28;20048;-70
2023/10/22 02:41:34;;;;;;;19.33;10.73;;;;;;;;;;5090869;28;20098;-70
2023/10/22 02:44:00;;;;;;;20.67;10.53;;;;;;;;;;5057374;28;20067;-70
2023/10/22 02:46:26;;;;;;;18.43;9.93;;;;;;;;;;5091096;28;20529;-71
2023/10/22 02:48:52;;;;;;;22.03;11.17;;;;;;;;;;5090605;28;20127;-71
2023/10/22 02:51:18;;;;;;;23.80;12.27;;;;;;;;;;5073851;28;20029;-71
2023/10/22 02:53:45;;;;;;;15.97;10.07;;;;;;;;;;5090806;28;20035;-72
2023/10/22 02:56:12;;;;;;;15.90;9.83;;;;;;;;;;5069534;28;20074;-71
2023/10/22 02:58:40;;;;;;;20.17;10.77;;;;;;;;;;5036234;28;20075;-71
2023/10/22 03:01:07;;;;;;;18.43;9.00;;;;;;;;;;5068997;28;20533;-71
2023/10/22 03:03:38;;;;;;;17.87;9.10;;;;;;;;;;5069500;28;20048;-71
2023/10/22 03:06:06;;;;;;;18.13;9.13;;;;;;;;;;5069338;28;20040;-70
2023/10/22 03:08:32;;;;;;;15.27;8.70;;;;;;;;;;5019803;28;20098;-71
2023/10/22 03:10:59;;;;;;;14.17;8.30;;;;;;;;;;5052786;28;20113;-70
2023/10/22 03:13:26;;;;;;;16.07;8.80;;;;;;;;;;5019499;28;20086;-73
2023/10/22 03:15:55;;;;;;;12.50;8.20;;;;;;;;;;5052501;28;20044;-71
2023/10/22 03:18:22;;;;;;;15.43;7.73;;;;;;;;;;5056615;28;20470;-72
2023/10/22 03:20:50;;;;;;;13.53;7.70;;;;;;;;;;5056604;28;20040;-72
2023/10/22 03:23:16;;;;;;;14.30;7.87;;;;;;;;;;5056894;28;20067;-72
2023/10/22 03:25:43;;;;;;;12.80;7.70;;;;;;;;;;5073584;28;20028;-73
2023/10/22 03:28:09;;;;;;;12.40;7.27;;;;;;;;;;5057534;28;20036;-72
2023/10/22 03:30:38;;;;;;;17.57;7.97;;;;;;;;;;5077582;28;20032;-73
2023/10/22 03:33:05;;;;;;;15.37;7.73;;;;;;;;;;5060730;28;20082;-72
2023/10/22 03:35:31;;;;;;;12.60;8.17;;;;;;;;;;5094476;28;20028;-73
2023/10/22 03:37:58;;;;;;;12.90;7.83;;;;;;;;;;5060573;28;20031;-72
2023/10/22 03:40:24;;;;;;;19.13;8.53;;;;;;;;;;5077058;28;20040;-72
2023/10/22 03:42:49;;;;;;;13.20;8.50;;;;;;;;;;5060596;28;21345;-72
2023/10/22 03:45:16;;;;;;;13.50;8.10;;;;;;;;;;5060828;28;20052;-72
2023/10/22 03:47:42;;;;;;;14.13;7.70;;;;;;;;;;5094391;28;20058;-71
2023/10/22 03:50:07;;;;;;;14.93;8.93;;;;;;;;;;5094303;28;20032;-71
2023/10/22 03:52:33;;;;;;;16.63;8.53;;;;;;;;;;5094323;28;20350;-72
2023/10/22 03:54:59;;;;;;;18.03;8.80;;;;;;;;;;5110997;28;20545;-72
2023/10/22 03:57:27;;;;;;;19.73;9.07;;;;;;;;;;5076919;28;20150;-72
2023/10/22 03:59:53;;;;;;;15.87;8.80;;;;;;;;;;5076663;28;20411;-72
2023/10/22 04:02:19;;;;;;;16.40;9.17;;;;;;;;;;5093443;28;20067;-72
2023/10/22 04:04:44;;;;;;;13.67;7.80;;;;;;;;;;5072301;28;20045;-71
2023/10/22 04:07:11;;;;;;;17.37;8.63;;;;;;;;;;5039065;28;20051;-72
2023/10/22 04:09:37;;;;;;;14.37;8.23;;;;;;;;;;5038910;28;20091;-72
2023/10/22 04:12:03;;;;;;;14.53;7.70;;;;;;;;;;5023114;28;20605;-71
2023/10/22 04:14:28;;;;;;;14.90;7.33;;;;;;;;;;5055372;28;20135;-73
2023/10/22 04:16:54;;;;;;;17.63;8.47;;;;;;;;;;5055514;28;20076;-71
2023/10/22 04:19:20;;;;;;;13.17;6.87;;;;;;;;;;5039140;28;20040;-71
2023/10/22 04:21:46;;;;;;;14.20;7.70;;;;;;;;;;5022594;28;20075;-72
2023/10/22 04:24:11;;;;;;;10.50;6.87;;;;;;;;;;5055487;28;20041;-73
2023/10/22 04:26:37;;;;;;;17.87;8.87;;;;;;;;;;5038692;28;20378;-72
2023/10/22 04:29:02;;;;;;;15.03;7.73;;;;;;;;;;5054820;28;20079;-71
2023/10/22 04:31:29;;;;;;;14.03;7.40;;;;;;;;;;5038490;28;20045;-71
2023/10/22 04:33:55;;;;;;;10.97;7.57;;;;;;;;;;5054872;28;20479;-70
2023/10/22 04:36:21;;;;;;;15.13;7.07;;;;;;;;;;5066544;28;20189;-71
2023/10/22 04:38:50;;;;;;;14.30;7.70;;;;;;;;;;5092795;28;20040;-71
2023/10/22 04:41:15;;;;;;;13.97;7.00;;;;;;;;;;5093754;28;20432;-71
2023/10/22 04:43:41;;;;;;;15.33;7.23;;;;;;;;;;5076012;28;20036;-71
2023/10/22 04:46:07;;;;;;;9.47;6.27;;;;;;;;;;5076475;28;20084;-73
2023/10/22 04:48:33;;;;;;;15.80;7.17;;;;;;;;;;5093541;28;20067;-72
2023/10/22 04:51:09;;;;;;;14.00;6.87;;;;;;;;;;5092727;28;20040;-73
2023/10/22 04:53:37;;;;;;;10.20;6.50;;;;;;;;;;5075772;28;20466;-72
2023/10/22 04:56:04;;;;;;;9.83;5.83;;;;;;;;;;5092912;28;20040;-72
2023/10/22 04:58:32;;;;;;;11.83;6.40;;;;;;;;;;5092591;28;20168;-71
2023/10/22 05:00:58;;;;;;;16.13;7.10;;;;;;;;;;5093159;28;20072;-71
2023/10/22 05:03:25;;;;;;;11.77;6.53;;;;;;;;;;5109288;28;20032;-71
2023/10/22 05:05:51;;;;;;;14.10;6.67;;;;;;;;;;5058846;28;20044;-71
2023/10/22 05:08:17;;;;;;;12.13;6.80;;;;;;;;;;5075800;28;20063;-72
2023/10/22 05:10:43;;;;;;;10.50;7.00;;;;;;;;;;5092143;28;20473;-71
2023/10/22 05:13:09;;;;;;;12.67;6.77;;;;;;;;;;5075604;28;20127;-71
2023/10/22 05:15:35;;;;;;;16.13;7.03;;;;;;;;;;5074253;28;20074;-70
2023/10/22 05:18:05;;;;;;;16.77;7.00;;;;;;;;;;5057789;28;20067;-70
2023/10/22 05:20:31;;;;;;;14.87;7.47;;;;;;;;;;5050514;28;20175;-71
2023/10/22 05:22:57;;;;;;;11.90;6.90;;;;;;;;;;5050838;28;20239;-71
2023/10/22 05:25:22;;;;;;;12.73;6.50;;;;;;;;;;5034027;28;20037;-73
2023/10/22 05:27:49;;;;;;;19.67;6.83;;;;;;;;;;5050591;28;20029;-72
2023/10/22 05:30:16;;;;;;;16.37;7.57;;;;;;;;;;5067250;28;20072;-72
2023/10/22 05:32:41;;;;;;;16.70;7.70;;;;;;;;;;5050436;28;20095;-72
2023/10/22 05:35:07;;;;;;;15.40;7.70;;;;;;;;;;5050894;28;20052;-73
2023/10/22 05:37:33;;;;;;;14.70;7.57;;;;;;;;;;5033617;28;20067;-73
2023/10/22 05:39:59;;;;;;;17.17;9.03;;;;;;;;;;5032613;28;20048;-72
2023/10/22 05:42:25;;;;;;;16.87;9.17;;;;;;;;;;5051924;28;20147;-72
2023/10/22 05:44:51;;;;;;;17.83;9.17;;;;;;;;;;5051590;28;20033;-72
2023/10/22 05:47:17;;;;;;;24.27;11.43;;;;;;;;;;5050195;28;20529;-72
2023/10/22 05:49:43;;;;;;;22.27;10.63;;;;;;;;;;5037205;28;20132;-72
2023/10/22 05:52:09;;;;;;;21.07;8.83;;;;;;;;;;5065738;28;20058;-72
2023/10/22 05:54:36;;;;;;;18.33;8.20;;;;;;;;;;5057902;28;20039;-72
2023/10/22 05:57:01;;;;;;;16.13;7.90;;;;;;;;;;5070270;28;20032;-72
2023/10/22 05:59:27;;;;;;;15.97;8.60;;;;;;;;;;5053294;28;20053;-71
2023/10/22 06:01:53;;;;;;;17.67;8.10;;;;;;;;;;5036784;28;20052;-70
2023/10/22 06:04:19;;;;;;;17.53;7.87;;;;;;;;;;5037334;28;20040;-72
2023/10/22 06:06:45;;;;;;;16.53;8.13;;;;;;;;;;5054251;28;20040;-71
2023/10/22 06:09:12;;;;;;;13.47;6.80;;;;;;;;;;5054527;28;20032;-74
2023/10/22 06:11:40;;;;;;;18.03;7.60;;;;;;;;;;5070528;28;20082;-74
2023/10/22 06:14:06;;;;;;;15.93;7.47;;;;;;;;;;5020575;28;20140;-75
2023/10/22 06:16:32;;;;;;;14.67;7.57;;;;;;;;;;5020194;28;20165;-73
2023/10/22 06:19:00;;;;;;;16.20;8.87;;;;;;;;;;5013657;28;20085;-71
2023/10/22 06:21:26;;;;;;;17.93;8.87;;;;;;;;;;4980436;28;20061;-72
2023/10/22 06:23:53;;;;;;;17.40;9.83;;;;;;;;;;4997072;28;20088;-73
2023/10/22 06:26:20;;;;;;;21.23;9.60;;;;;;;;;;4958473;28;20050;-73
2023/10/22 06:28:47;;;;;;;22.00;9.70;;;;;;;;;;4990177;28;20554;-73
2023/10/22 06:31:13;;;;;;;23.60;10.07;;;;;;;;;;5030483;28;20129;-75
2023/10/22 06:33:40;;;;;;;24.23;9.67;;;;;;;;;;5014344;28;20046;-74
2023/10/22 06:36:16;;;;;;;20.27;9.40;;;;;;;;;;4987459;28;20043;-73
2023/10/22 06:38:45;;;;;;;19.87;10.27;;;;;;;;;;4944522;29;20059;-72
2023/10/22 06:41:12;;;;;;;19.70;9.93;;;;;;;;;;4885099;29;20059;-72
2023/10/22 06:43:39;;;;;;;19.07;10.00;;;;;;;;;;4901071;29;20044;-75
2023/10/22 06:46:05;;;;;;;26.73;11.70;;;;;;;;;;4916941;29;20134;-75
2023/10/22 06:48:30;;;;;;;22.47;10.27;;;;;;;;;;4900872;29;20135;-74
2023/10/22 06:50:58;;;;;;;21.97;9.50;;;;;;;;;;4952757;28;20042;-74
2023/10/22 06:53:24;;;;;;;17.70;9.23;;;;;;;;;;4974070;28;20065;-71
2023/10/22 06:55:49;;;;;;;29.40;11.13;;;;;;;;;;4958013;28;20046;-75
2023/10/22 06:58:16;;;;;;;20.43;11.20;;;;;;;;;;4970598;28;20090;-73
2023/10/22 07:00:42;;;;;;;27.07;11.53;;;;;;;;;;4986906;28;20059;-74
2023/10/22 07:03:12;;;;;;;22.40;11.47;;;;;;;;;;4954902;28;20168;-74
2023/10/22 07:05:37;;;;;;;27.20;11.83;;;;;;;;;;4971572;28;20039;-76
2023/10/22 07:08:03;;;;;;;29.47;11.87;;;;;;;;;;4993645;28;20467;-75
2023/10/22 07:10:29;;;;;;;28.03;13.00;;;;;;;;;;5012384;28;20133;-76
2023/10/22 07:12:57;;;;;;;31.30;12.18;;;;;;;;;;4979416;28;20056;-75
2023/10/22 07:15:26;;;;;;;33.38;12.52;;;;;;;;;;5020352;28;20052;-73
2023/10/22 07:17:52;;;;;;;36.22;14.15;;;;;;;;;;5003513;28;20094;-76
2023/10/22 07:20:18;;;;;;;26.67;12.73;;;;;;;;;;5002515;28;20044;-74
2023/10/22 07:22:44;;;;;;;31.75;12.80;;;;;;;;;;5000143;28;20037;-78
2023/10/22 07:25:09;;;;;;;24.20;12.32;;;;;;;;;;4999843;28;20040;-76
2023/10/22 07:27:35;;;;;;;28.48;12.48;;;;;;;;;;4999804;28;20059;-74
2023/10/22 07:30:01;;;;;;;21.67;10.00;;;;;;;;;;5029109;28;20044;-70
2023/10/22 07:32:26;;;;;;;15.82;8.90;;;;;;;;;;5069927;28;20037;-70
2023/10/22 07:34:54;;;;;;;15.47;8.63;;;;;;;;;;5064983;28;20598;-72
2023/10/22 07:37:20;;;;;;;13.43;8.70;;;;;;;;;;5049551;28;20071;-68
2023/10/22 07:39:45;;;;;;;13.80;7.65;;;;;;;;;;5049040;28;20045;-68
2023/10/22 07:42:11;;;;;;;13.47;8.23;;;;;;;;;;5048243;28;20056;-67
2023/10/22 07:44:36;;;;;;;16.70;8.45;;;;;;;;;;5048035;28;20033;-66
2023/10/22 07:47:02;;;;;;;23.45;9.52;;;;;;;;;;5015016;28;20037;-66
2023/10/22 07:49:29;;;;;;;23.27;10.00;;;;;;;;;;5048666;28;20476;-68
2023/10/22 07:51:54;;;;;;;16.50;9.57;;;;;;;;;;5031961;28;20359;-66
2023/10/22 07:54:20;;;;;;;16.45;8.98;;;;;;;;;;5048575;28;20037;-67
2023/10/22 07:56:45;;;;;;;14.40;9.45;;;;;;;;;;5032575;28;20163;-67
2023/10/22 07:59:11;;;;;;;18.70;11.20;;;;;;;;;;5032224;28;20116;-66
2023/10/22 08:01:37;;;;;;;19.40;11.23;;;;;;;;;;5031984;28;20103;-67
2023/10/22 08:04:03;;;;;;;19.00;11.27;;;;;;;;;;5033714;28;20127;-67
2023/10/22 08:06:29;;;;;;;18.38;10.60;;;;;;;;;;5035717;28;20033;-68
2023/10/22 08:08:57;;;;;;;18.08;10.13;;;;;;;;;;5052321;28;20029;-66
2023/10/22 08:11:24;;;;;;;18.60;9.00;;;;;;;;;;5035791;28;20083;-68
2023/10/22 08:13:50;;;;;;;19.02;9.27;;;;;;;;;;5023278;28;20434;-66
2023/10/22 08:16:17;;;;;;;15.32;8.80;;;;;;;;;;5035662;28;20033;-66
2023/10/22 08:18:43;;;;;;;14.67;8.70;;;;;;;;;;5055936;28;20051;-68
2023/10/22 08:21:10;;;;;;;16.75;8.30;;;;;;;;;;5092889;28;20079;-67
2023/10/22 08:23:38;;;;;;;19.47;9.03;;;;;;;;;;5093176;28;20040;-67
2023/10/22 08:26:04;;;;;;;15.48;8.30;;;;;;;;;;5093015;28;20308;-68
2023/10/22 08:28:29;;;;;;;16.33;8.65;;;;;;;;;;5076342;28;20058;-67
2023/10/22 08:30:59;;;;;;;12.27;7.65;;;;;;;;;;5076430;28;20036;-69
2023/10/22 08:33:25;;;;;;;14.90;7.93;;;;;;;;;;5076315;28;20028;-67
2023/10/22 08:35:52;;;;;;;13.98;8.57;;;;;;;;;;5093183;28;20085;-68
2023/10/22 08:38:18;;;;;;;14.90;8.20;;;;;;;;;;5110415;28;20100;-68
2023/10/22 08:40:44;;;;;;;15.70;8.93;;;;;;;;;;5075665;28;20466;-66
2023/10/22 08:43:15;;;;;;;17.37;9.10;;;;;;;;;;5092817;28;20028;-65
2023/10/22 08:45:45;;;;;;;20.48;8.05;;;;;;;;;;5076167;28;20059;-68
2023/10/22 08:48:13;;;;;;;11.60;7.97;;;;;;;;;;5093905;28;20047;-68
2023/10/22 08:50:41;;;;;;;16.80;9.17;;;;;;;;;;5092818;28;20112;-69
2023/10/22 08:53:07;;;;;;;20.85;9.25;;;;;;;;;;5092928;28;20067;-67
2023/10/22 08:55:34;;;;;;;15.43;8.03;;;;;;;;;;5076058;28;20410;-71
2023/10/22 08:58:00;;;;;;;13.03;8.27;;;;;;;;;;5058290;28;20042;-68
2023/10/22 09:00:27;;;;;;;17.00;8.37;;;;;;;;;;5083344;28;20036;-69
2023/10/22 09:02:52;;;;;;;17.15;8.45;;;;;;;;;;5090373;28;20133;-70
2023/10/22 09:05:19;;;;;;;16.80;8.50;;;;;;;;;;5109193;28;20043;-69
2023/10/22 09:07:53;;;;;;;18.77;9.57;;;;;;;;;;5074364;28;20119;-69
2023/10/22 09:10:23;;;;;;;14.98;9.05;;;;;;;;;;5090525;28;20170;-68
2023/10/22 09:12:49;;;;;;;14.93;8.82;;;;;;;;;;5091980;28;20040;-68
2023/10/22 09:15:17;;;;;;;16.88;10.15;;;;;;;;;;5091617;28;20065;-68
2023/10/22 09:17:45;;;;;;;16.67;10.10;;;;;;;;;;5091665;28;20456;-71
2023/10/22 09:20:21;;;;;;;18.13;10.63;;;;;;;;;;5074464;28;20084;-69
2023/10/22 09:22:49;;;;;;;17.52;10.70;;;;;;;;;;5091857;28;20079;-70
2023/10/22 09:25:17;;;;;;;19.95;10.95;;;;;;;;;;5091275;28;20124;-71
2023/10/22 09:27:45;;;;;;;16.13;11.68;;;;;;;;;;5073224;28;20056;-71
2023/10/22 09:30:11;;;;;;;17.43;11.73;;;;;;;;;;5108178;28;20105;-70
2023/10/22 09:32:47;;;;;;;22.70;11.40;;;;;;;;;;5058619;28;20032;-70
2023/10/22 09:35:13;;;;;;;14.65;10.77;;;;;;;;;;5095959;28;20424;-71
2023/10/22 09:37:48;;;;;;;16.08;11.25;;;;;;;;;;5075504;28;20036;-69
2023/10/22 09:40:21;;;;;;;16.23;11.15;;;;;;;;;;5091442;28;20085;-70
2023/10/22 09:42:51;;;;;;;15.75;11.32;;;;;;;;;;5091528;28;20127;-70
2023/10/22 09:45:22;;;;;;;18.80;10.88;;;;;;;;;;5072690;28;20038;-70
2023/10/22 09:47:50;;;;;;;12.93;10.07;;;;;;;;;;5073732;28;20498;-69
2023/10/22 09:50:18;;;;;;;17.90;11.00;;;;;;;;;;5073604;28;20438;-70
2023/10/22 09:52:44;;;;;;;16.60;10.13;;;;;;;;;;5073348;28;20036;-69
2023/10/22 09:55:13;;;;;;;14.70;10.20;;;;;;;;;;5073370;28;20050;-69
2023/10/22 09:57:40;;;;;;;22.10;11.50;;;;;;;;;;5092440;28;20841;-68
2023/10/22 10:00:15;;;;;;;16.40;10.03;;;;;;;;;;5075616;28;20440;-68
2023/10/22 10:02:42;;;;;;;17.88;9.85;;;;;;;;;;5074969;28;20048;-68
2023/10/22 10:05:11;;;;;;;22.40;10.90;;;;;;;;;;5109080;28;20027;-68
2023/10/22 10:07:38;;;;;;;19.83;10.07;;;;;;;;;;5109070;28;20373;-69
2023/10/22 10:10:05;;;;;;;17.38;10.93;;;;;;;;;;5059068;28;20071;-69
2023/10/22 10:12:38;;;;;;;15.30;10.32;;;;;;;;;;5109091;28;20043;-67
2023/10/22 10:15:04;;;;;;;21.20;10.23;;;;;;;;;;5093170;28;20047;-69
2023/10/22 10:17:52;;;;;;;19.57;9.67;;;;;;;;;;5042669;28;20040;-68
2023/10/22 10:20:31;;;;;;;16.63;9.55;;;;;;;;;;5092758;28;20036;-69
2023/10/22 10:23:19;;;;;;;15.60;9.93;;;;;;;;;;5091706;28;20088;-68
2023/10/22 10:25:45;;;;;;;22.73;10.27;;;;;;;;;;5108368;28;20108;-68
2023/10/22 10:28:13;;;;;;;16.25;10.52;;;;;;;;;;5091060;28;20474;-69
2023/10/22 10:30:39;;;;;;;17.70;9.88;;;;;;;;;;5089925;28;20092;-65
2023/10/22 10:33:07;;;;;;;18.48;9.75;;;;;;;;;;5074133;28;20043;-69
2023/10/22 10:35:46;;;;;;;21.85;9.40;;;;;;;;;;5055724;28;20050;-69
2023/10/22 10:38:15;;;;;;;21.23;9.52;;;;;;;;;;5106393;28;20154;-68
2023/10/22 10:40:42;;;;;;;17.10;9.18;;;;;;;;;;5072589;28;20890;-71
2023/10/22 10:43:10;;;;;;;11.98;8.98;;;;;;;;;;5087708;28;20055;-73
2023/10/22 10:45:43;;;;;;;14.85;8.93;;;;;;;;;;5022930;28;20059;-69
2023/10/22 10:48:28;;;;;;;18.45;9.20;;;;;;;;;;5039371;28;20432;-68
2023/10/22 10:51:13;;;;;;;16.77;9.15;;;;;;;;;;5038617;28;20134;-69
2023/10/22 10:53:58;;;;;;;13.07;9.13;;;;;;;;;;5072268;28;20135;-68
2023/10/22 10:56:43;;;;;;;20.42;9.45;;;;;;;;;;5055028;28;20044;-69
2023/10/22 10:59:09;;;;;;;17.25;9.63;;;;;;;;;;5051631;28;20123;-70
2023/10/22 11:01:38;;;;;;;20.88;9.30;;;;;;;;;;5071070;28;20052;-67
2023/10/22 11:04:05;;;;;;;17.15;8.75;;;;;;;;;;5071227;28;20066;-69
2023/10/22 11:06:31;;;;;;;17.48;8.95;;;;;;;;;;5054211;28;20039;-69
2023/10/22 11:08:56;;;;;;;18.75;9.52;;;;;;;;;;5054145;28;20396;-69
2023/10/22 11:11:22;;;;;;;14.18;9.27;;;;;;;;;;5054007;28;20058;-67
2023/10/22 11:13:48;;;;;;;15.23;8.85;;;;;;;;;;5054019;28;20090;-69
2023/10/22 11:16:14;;;;;;;15.00;9.45;;;;;;;;;;5054310;28;20549;-76
2023/10/22 11:18:58;;;;;;;15.80;9.55;;;;;;;;;;5088433;28;20032;-76
2023/10/22 11:21:23;;;;;;;14.35;9.35;;;;;;;;;;5070188;28;20060;-75
2023/10/22 11:23:49;;;;;;;12.73;9.48;;;;;;;;;;5055235;28;20477;-81
2023/10/22 11:26:17;;;;;;;19.08;8.65;;;;;;;;;;5072528;28;20108;-73
2023/10/22 11:28:43;;;;;;;16.40;10.13;;;;;;;;;;5072160;28;20028;-76
2023/10/22 11:31:23;;;;;;;14.85;10.43;;;;;;;;;;5089419;28;20091;-81
2023/10/22 11:33:52;;;;;;;13.32;9.48;;;;;;;;;;5072038;28;20450;-72
2023/10/22 11:36:18;;;;;;;23.13;10.32;;;;;;;;;;5072798;28;20088;-75
2023/10/22 11:38:44;;;;;;;18.70;10.35;;;;;;;;;;5075624;28;20101;-78
2023/10/22 11:41:15;;;;;;;14.13;9.47;;;;;;;;;;5093709;28;20395;-82
2023/10/22 11:43:43;;;;;;;13.43;9.80;;;;;;;;;;5059079;28;20539;-80
2023/10/22 11:46:11;;;;;;;14.37;9.50;;;;;;;;;;5060411;28;20028;-75
2023/10/22 11:48:43;;;;;;;15.03;10.67;;;;;;;;;;5077168;28;20071;-78
2023/10/22 11:51:10;;;;;;;16.23;10.27;;;;;;;;;;5099082;28;20063;-80
2023/10/22 11:53:40;;;;;;;15.27;9.67;;;;;;;;;;5062713;28;20043;-79
2023/10/22 11:56:06;;;;;;;14.38;10.15;;;;;;;;;;5078329;28;20039;-75
2023/10/22 11:58:33;;;;;;;13.10;9.98;;;;;;;;;;5078229;28;20040;-75
2023/10/22 12:01:00;;;;;;;13.05;9.68;;;;;;;;;;5078813;28;20044;-80
2023/10/22 12:03:26;;;;;;;16.40;10.50;;;;;;;;;;5096320;28;20059;-81
2023/10/22 12:05:53;;;;;;;15.70;10.75;;;;;;;;;;5062229;28;20051;-74
2023/10/22 12:08:22;;;;;;;13.77;9.57;;;;;;;;;;5077151;28;20028;-82
2023/10/22 12:10:48;;;;;;;17.98;10.57;;;;;;;;;;5062892;28;20040;-78
2023/10/22 12:13:14;;;;;;;15.20;10.63;;;;;;;;;;5062352;28;20036;-82
2023/10/22 12:15:42;;;;;;;14.35;9.57;;;;;;;;;;5099324;28;20412;-84
2023/10/22 12:18:13;;;;;;;;;;;;;;;;;;5068098;28;20044;-77
2023/10/22 12:20:40;;;;;;;19.67;10.10;;;;;;;;;;5062332;28;19927;-78
2023/10/22 12:23:10;;;;;;;16.02;10.60;;;;;;;;;;5094490;28;20066;-81
2023/10/22 12:25:36;;;;;;;16.25;10.52;;;;;;;;;;5053015;28;20056;-78
2023/10/22 12:28:03;;;;;;;21.15;10.48;;;;;;;;;;5073652;28;20045;-79
2023/10/22 12:30:29;;;;;;;14.70;9.70;;;;;;;;;;5042176;28;20077;-77
2023/10/22 12:32:56;;;;;;;17.80;10.30;;;;;;;;;;5058053;28;20420;-76
2023/10/22 12:35:22;;;;;;;16.50;11.07;;;;;;;;;;5058133;28;20036;-72
2023/10/22 12:37:48;;;;;;;19.40;11.53;;;;;;;;;;5092599;28;20352;-78
2023/10/22 12:40:14;;;;;;;19.38;11.30;;;;;;;;;;5041887;28;20481;-78
2023/10/22 12:42:41;;;;;;;16.87;11.10;;;;;;;;;;5058526;28;20040;-77
2023/10/22 12:45:10;;;;;;;21.75;11.68;;;;;;;;;;5042681;28;20058;-76
2023/10/22 12:47:36;;;;;;;16.42;11.15;;;;;;;;;;5091267;28;20331;-75
2023/10/22 12:50:05;;;;;;;19.88;11.73;;;;;;;;;;5075147;28;20032;-76
2023/10/22 12:52:32;;;;;;;17.92;10.43;;;;;;;;;;5092115;28;20366;-75
2023/10/22 12:54:58;;;;;;;17.90;11.73;;;;;;;;;;5075392;28;20038;-74
2023/10/22 12:57:24;;;;;;;18.50;11.02;;;;;;;;;;5058912;28;20071;-76
2023/10/22 12:59:50;;;;;;;23.13;11.02;;;;;;;;;;5059239;28;20060;-74
2023/10/22 13:02:15;;;;;;;19.77;11.77;;;;;;;;;;5091992;28;20052;-76
2023/10/22 13:04:46;;;;;;;20.00;11.57;;;;;;;;;;5093162;28;20071;-73
2023/10/22 13:07:13;;;;;;;;;;;;;;;;;;5042297;28;20405;-75
2023/10/22 13:09:39;;;;;;;20.00;10.73;;;;;;;;;;5109160;28;19966;-74
2023/10/22 13:12:05;;;;;;;19.05;11.70;;;;;;;;;;5074840;28;20043;-73
2023/10/22 13:14:32;;;;;;;18.05;11.93;;;;;;;;;;5091993;28;20474;-73
2023/10/22 13:16:57;;;;;;;16.38;11.52;;;;;;;;;;5092048;28;20040;-76
2023/10/22 13:19:23;;;;;;;24.23;12.25;;;;;;;;;;5091733;28;20467;-75
2023/10/22 13:21:49;;;;;;;18.23;11.53;;;;;;;;;;5075391;28;20078;-74
2023/10/22 13:24:16;;;;;;;21.20;11.70;;;;;;;;;;5058522;28;20028;-77
2023/10/22 13:26:42;;;;;;;17.27;11.30;;;;;;;;;;5034635;28;20045;-74
2023/10/22 13:29:08;;;;;;;18.67;11.38;;;;;;;;;;5020552;28;20167;-72
2023/10/22 13:31:34;;;;;;;21.77;13.17;;;;;;;;;;5005043;28;20100;-74
2023/10/22 13:34:02;;;;;;;18.73;11.82;;;;;;;;;;5005858;28;20028;-76
2023/10/22 13:36:29;;;;;;;16.98;10.98;;;;;;;;;;5023388;28;20065;-74
2023/10/22 13:38:55;;;;;;;19.98;10.80;;;;;;;;;;5056443;28;20104;-78
2023/10/22 13:41:20;;;;;;;17.38;11.45;;;;;;;;;;5042499;28;20120;-77
2023/10/22 13:43:47;;;;;;;17.33;11.18;;;;;;;;;;5022794;28;20472;-76
2023/10/22 13:46:14;;;;;;;20.75;11.88;;;;;;;;;;5052237;28;20052;-75
2023/10/22 13:48:41;;;;;;;17.27;12.05;;;;;;;;;;5034687;28;20044;-74
2023/10/22 13:51:07;;;;;;;17.23;11.77;;;;;;;;;;5033814;28;20052;-74
2023/10/22 13:53:34;;;;;;;17.10;11.77;;;;;;;;;;5013747;28;20035;-74
2023/10/22 13:56:00;;;;;;;17.60;12.30;;;;;;;;;;5035137;28;20032;-72
2023/10/22 13:58:29;;;;;;;25.02;12.98;;;;;;;;;;5055884;28;20043;-75
2023/10/22 14:00:57;;;;;;;16.87;12.37;;;;;;;;;;5037259;28;20059;-76
2023/10/22 14:03:24;;;;;;;26.33;12.50;;;;;;;;;;5016101;28;20039;-70
2023/10/22 14:05:51;;;;;;;19.58;12.27;;;;;;;;;;5042303;28;20041;-75
2023/10/22 14:08:18;;;;;;;20.80;12.85;;;;;;;;;;5077649;28;20104;-72
2023/10/22 14:10:44;;;;;;;19.25;12.07;;;;;;;;;;5043112;28;20036;-74
2023/10/22 14:13:11;;;;;;;18.25;12.35;;;;;;;;;;5036582;28;20433;-77
2023/10/22 14:15:38;;;;;;;19.02;13.95;;;;;;;;;;5052982;28;20470;-75
2023/10/22 14:18:07;;;;;;;29.67;14.38;;;;;;;;;;5042030;28;20534;-78
2023/10/22 14:20:45;;;;;;;23.27;13.73;;;;;;;;;;5011483;28;20040;-78
2023/10/22 14:23:44;;;;;;;18.52;12.55;;;;;;;;;;5026796;28;20451;-75
2023/10/22 14:26:18;;;;;;;19.75;11.85;;;;;;;;;;5017728;28;20087;-78